Time,TemperatureF,DewpointF,PressureIn,WindDirection,WindDirectionDegrees,WindSpeedMPH,WindSpeedGustMPH,Humidity,HourlyPrecipIn,Conditions,Clouds,dailyrainin,SoftwareType,DateUTC
2013-04-08 00:02:00,68.0,60.2,29.51,ESE,111,8.8,12.7,76,0.00,CLR,,0.00,WeatherDisplay:10.37,2013-04-08 05:02:00,
2013-04-08 00:08:00,68.0,60.2,29.52,NE,43,6.8,10.4,76,0.00,CLR,,0.00,WeatherDisplay:10.37,2013-04-08 05:08:00,
2013-04-08 00:13:00,67.8,60.0,29.52,ESE,111,8.0,12.7,76,0.00,CLR,,0.00,WeatherDisplay:10.37,2013-04-08 05:13:00,
2013-04-08 00:18:00,67.8,60.0,29.52,SW,223,7.7,12.7,76,0.00,CLR,,0.00,WeatherDisplay:10.37,2013-04-08 05:18:00,
2013-04-08 00:23:00,67.6,59.8,29.52,SW,223,7.4,10.4,76,0.00,CLR,,0.00,WeatherDisplay:10.37,2013-04-08 05:23:00,
2013-04-08 00:28:00,67.6,60.2,29.52,South,178,6.6,11.5,77,0.00,CLR,,0.00,WeatherDisplay:10.37,2013-04-08 05:28:00,
2013-04-08 00:33:00,67.6,60.2,29.52,SSE,155,6.9,13.8,77,0.00,CLR,,0.00,WeatherDisplay:10.37,2013-04-08 05:33:00,
2013-04-08 00:38:00,67.5,60.0,29.52,ENE,65,6.1,11.5,77,0.00,CLR,,0.00,WeatherDisplay:10.37,2013-04-08 05:38:00,
2013-04-08 00:43:00,67.3,59.8,29.52,NE,43,5.8,8.1,77,0.00,CLR,,0.00,WeatherDisplay:10.37,2013-04-08 05:43:00,
2013-04-08 00:48:00,67.3,59.8,29.52,SE,133,6.3,12.7,77,0.00,CLR,,0.00,WeatherDisplay:10.37,2013-04-08 05:48:00,
2013-04-08 00:53:00,67.1,60.0,29.52,East,88,6.0,9.2,78,0.00,CLR,,0.00,WeatherDisplay:10.37,2013-04-08 05:53:00,
2013-04-08 00:58:00,66.9,59.8,29.52,WSW,245,6.3,9.2,78,0.00,CLR,,0.00,WeatherDisplay:10.37,2013-04-08 05:58:00,
2013-04-08 01:03:00,66.9,59.8,29.53,NW,313,5.6,11.5,78,0.00,CLR,,0.00,WeatherDisplay:10.37,2013-04-08 06:03:00,
2013-04-08 01:08:00,66.6,59.5,29.52,SW,223,4.5,8.1,78,0.00,CLR,,0.00,WeatherDisplay:10.37,2013-04-08 06:08:00,
2013-04-08 01:13:00,66.6,59.8,29.52,NE,43,4.4,9.2,79,0.00,CLR,,0.00,WeatherDisplay:10.37,2013-04-08 06:13:00,
2013-04-08 01:18:00,66.6,59.8,29.52,ENE,65,4.8,11.5,79,0.00,CLR,,0.00,WeatherDisplay:10.37,2013-04-08 06:18:00,
2013-04-08 01:23:00,66.4,59.7,29.53,ENE,65,4.7,8.1,79,0.00,CLR,,0.00,WeatherDisplay:10.37,2013-04-08 06:23:00,
2013-04-08 01:28:00,66.4,59.7,29.53,SSW,201,5.3,9.8,79,0.00,CLR,,0.00,WeatherDisplay:10.37,2013-04-08 06:28:00,
2013-04-08 01:33:00,66.2,59.5,29.53,SSW,201,6.5,11.5,79,0.00,CLR,,0.00,WeatherDisplay:10.37,2013-04-08 06:33:00,
2013-04-08 01:38:00,66.2,59.5,29.53,South,178,9.1,9.2,79,0.00,CLR,,0.00,WeatherDisplay:10.37,2013-04-08 06:38:00,
2013-04-08 01:43:00,66.2,59.5,29.53,SW,223,5.0,11.5,79,0.00,CLR,,0.00,WeatherDisplay:10.37,2013-04-08 06:43:00,
2013-04-08 01:48:00,66.2,59.5,29.53,SSW,201,8.3,11.5,79,0.00,CLR,,0.00,WeatherDisplay:10.37,2013-04-08 06:48:00,
2013-04-08 01:53:00,66.0,59.3,29.53,South,178,7.7,11.5,79,0.00,CLR,,0.00,WeatherDisplay:10.37,2013-04-08 06:53:00,
2013-04-08 01:58:00,66.0,59.3,29.53,SSE,155,5.8,11.5,79,0.00,CLR,,0.00,WeatherDisplay:10.37,2013-04-08 06:58:00,
2013-04-08 02:03:00,65.8,59.1,29.53,SSW,201,5.7,14.6,79,0.00,CLR,,0.00,WeatherDisplay:10.37,2013-04-08 07:03:00,
2013-04-08 02:08:00,65.8,59.5,29.53,South,178,6.8,11.5,80,0.00,CLR,,0.00,WeatherDisplay:10.37,2013-04-08 07:08:00,
2013-04-08 02:13:00,65.8,59.1,29.53,WSW,245,8.5,16.1,79,0.00,CLR,,0.00,WeatherDisplay:10.37,2013-04-08 07:13:00,
2013-04-08 02:19:00,65.8,59.1,29.53,East,88,5.6,12.7,79,0.00,CLR,,0.00,WeatherDisplay:10.37,2013-04-08 07:19:00,
2013-04-08 02:24:00,65.7,59.0,29.53,East,88,6.3,11.5,79,0.00,CLR,,0.00,WeatherDisplay:10.37,2013-04-08 07:24:00,
2013-04-08 02:29:00,65.5,59.1,29.53,SSE,155,7.8,12.7,80,0.00,CLR,,0.00,WeatherDisplay:10.37,2013-04-08 07:29:00,
2013-04-08 02:34:00,65.5,59.1,29.53,South,178,6.7,12.7,80,0.00,CLR,,0.00,WeatherDisplay:10.37,2013-04-08 07:34:00,
2013-04-08 02:40:00,65.3,58.6,29.52,SSE,155,6.3,11.5,79,0.00,CLR,,0.00,WeatherDisplay:10.37,2013-04-08 07:40:00,
2013-04-08 02:45:00,65.3,59.0,29.52,SE,133,5.8,11.5,80,0.00,CLR,,0.00,WeatherDisplay:10.37,2013-04-08 07:45:00,
2013-04-08 02:50:00,65.1,58.4,29.51,ESE,111,5.2,10.5,79,0.00,CLR,,0.00,WeatherDisplay:10.37,2013-04-08 07:50:00,
2013-04-08 02:55:00,65.1,58.4,29.51,SE,133,5.4,10.4,79,0.00,CLR,,0.00,WeatherDisplay:10.37,2013-04-08 07:55:00,
2013-04-08 03:00:00,65.1,58.8,29.51,SSE,155,5.5,9.2,80,0.00,CLR,,0.00,WeatherDisplay:10.37,2013-04-08 08:00:00,
2013-04-08 03:05:00,64.9,58.6,29.51,ENE,65,5.5,9.2,80,0.00,CLR,,0.00,WeatherDisplay:10.37,2013-04-08 08:05:00,
2013-04-08 03:10:00,64.9,58.6,29.51,West,268,5.0,10.4,80,0.00,CLR,,0.00,WeatherDisplay:10.37,2013-04-08 08:10:00,
2013-04-08 03:15:00,64.8,58.4,29.50,SSE,155,6.3,11.5,80,0.00,CLR,,0.00,WeatherDisplay:10.37,2013-04-08 08:15:00,
2013-04-08 03:20:00,64.8,58.4,29.50,SSW,201,6.7,9.2,80,0.00,CLR,,0.00,WeatherDisplay:10.37,2013-04-08 08:20:00,
2013-04-08 03:25:00,64.8,58.4,29.50,SE,133,5.9,8.9,80,0.00,CLR,,0.00,WeatherDisplay:10.37,2013-04-08 08:25:00,
2013-04-08 03:31:00,64.8,58.4,29.50,South,178,5.8,11.5,80,0.00,CLR,,0.00,WeatherDisplay:10.37,2013-04-08 08:31:00,
2013-04-08 03:36:00,64.6,58.3,29.50,South,178,5.8,9.2,80,0.00,CLR,,0.00,WeatherDisplay:10.37,2013-04-08 08:36:00,
2013-04-08 03:42:00,64.6,58.6,29.49,NW,313,6.0,12.7,81,0.00,CLR,,0.00,WeatherDisplay:10.37,2013-04-08 08:42:00,
2013-04-08 03:47:00,64.4,58.4,29.49,SSW,201,6.6,10.5,81,0.00,CLR,,0.00,WeatherDisplay:10.37,2013-04-08 08:47:00,
2013-04-08 03:52:00,64.4,58.4,29.49,East,88,4.9,10.4,81,0.00,CLR,,0.00,WeatherDisplay:10.37,2013-04-08 08:52:00,
2013-04-08 03:58:00,64.4,58.4,29.49,East,88,6.0,11.5,81,0.00,CLR,,0.00,WeatherDisplay:10.37,2013-04-08 08:58:00,
2013-04-08 04:03:00,64.4,58.4,29.49,ESE,111,5.9,11.5,81,0.00,CLR,,0.00,WeatherDisplay:10.37,2013-04-08 09:03:00,
2013-04-08 04:08:00,64.4,58.4,29.48,SE,133,6.7,11.5,81,0.00,CLR,,0.00,WeatherDisplay:10.37,2013-04-08 09:08:00,
2013-04-08 04:13:00,64.4,58.4,29.48,SW,223,6.9,9.2,81,0.00,CLR,,0.00,WeatherDisplay:10.37,2013-04-08 09:13:00,
2013-04-08 04:18:00,64.4,58.4,29.48,South,178,6.7,11.5,81,0.00,CLR,,0.00,WeatherDisplay:10.37,2013-04-08 09:18:00,
2013-04-08 04:23:00,64.4,58.4,29.48,SSE,155,5.7,9.2,81,0.00,CLR,,0.00,WeatherDisplay:10.37,2013-04-08 09:23:00,
2013-04-08 04:28:00,64.4,58.8,29.48,SE,133,5.0,13.8,82,0.00,CLR,,0.00,WeatherDisplay:10.37,2013-04-08 09:28:00,
2013-04-08 04:33:00,64.6,59.0,29.48,SSE,155,8.1,15.0,82,0.00,CLR,,0.00,WeatherDisplay:10.37,2013-04-08 09:33:00,
2013-04-08 04:38:00,64.8,59.1,29.48,SSE,155,8.5,11.5,82,0.00,CLR,,0.00,WeatherDisplay:10.37,2013-04-08 09:38:00,
2013-04-08 04:43:00,64.6,58.6,29.48,SE,133,6.0,11.5,81,0.00,CLR,,0.00,WeatherDisplay:10.37,2013-04-08 09:43:00,
2013-04-08 04:48:00,64.6,59.0,29.48,SE,133,7.2,15.0,82,0.00,CLR,,0.00,WeatherDisplay:10.37,2013-04-08 09:48:00,
2013-04-08 04:53:00,64.6,59.0,29.48,ESE,111,7.9,15.0,82,0.00,CLR,,0.00,WeatherDisplay:10.37,2013-04-08 09:53:00,
2013-04-08 04:58:00,64.6,59.0,29.48,South,178,10.1,18.4,82,0.00,CLR,,0.00,WeatherDisplay:10.37,2013-04-08 09:58:00,
2013-04-08 05:04:00,64.6,59.0,29.48,SW,223,10.8,17.0,82,0.00,CLR,,0.00,WeatherDisplay:10.37,2013-04-08 10:04:00,
2013-04-08 05:09:00,64.8,59.5,29.48,ESE,111,10.8,16.1,83,0.00,CLR,,0.00,WeatherDisplay:10.37,2013-04-08 10:09:00,
2013-04-08 05:15:00,64.8,59.5,29.48,SSW,201,9.2,15.0,83,0.00,CLR,,0.00,WeatherDisplay:10.37,2013-04-08 10:15:00,
2013-04-08 05:20:00,64.9,59.7,29.48,West,268,9.5,17.3,83,0.00,CLR,,0.00,WeatherDisplay:10.37,2013-04-08 10:20:00,
2013-04-08 05:25:00,64.9,59.7,29.48,South,178,9.8,13.8,83,0.00,CLR,,0.00,WeatherDisplay:10.37,2013-04-08 10:25:00,
2013-04-08 05:30:00,64.9,59.7,29.48,South,178,11.9,19.6,83,0.00,CLR,,0.00,WeatherDisplay:10.37,2013-04-08 10:30:00,
2013-04-08 05:35:00,64.9,59.7,29.48,SW,223,7.7,13.8,83,0.00,CLR,,0.00,WeatherDisplay:10.37,2013-04-08 10:35:00,
2013-04-08 05:40:00,65.1,59.8,29.48,SE,133,7.8,13.8,83,0.00,CLR,,0.00,WeatherDisplay:10.37,2013-04-08 10:40:00,
2013-04-08 05:45:00,65.1,60.2,29.49,SSE,155,11.0,17.3,84,0.00,CLR,,0.00,WeatherDisplay:10.37,2013-04-08 10:45:00,
2013-04-08 05:50:00,65.1,60.2,29.49,SW,223,10.5,16.1,84,0.00,CLR,,0.00,WeatherDisplay:10.37,2013-04-08 10:50:00,
2013-04-08 05:55:00,65.1,60.2,29.49,West,268,11.2,18.4,84,0.00,CLR,,0.00,WeatherDisplay:10.37,2013-04-08 10:55:00,
2013-04-08 06:00:00,65.1,60.2,29.49,SSE,155,10.1,16.1,84,0.00,CLR,,0.00,WeatherDisplay:10.37,2013-04-08 11:00:00,
2013-04-08 06:05:00,65.3,60.3,29.49,SSW,201,9.9,18.4,84,0.00,OVC,,0.00,WeatherDisplay:10.37,2013-04-08 11:05:00,
2013-04-08 06:10:00,65.1,60.2,29.49,SSE,155,8.5,13.8,84,0.00,OVC,,0.00,WeatherDisplay:10.37,2013-04-08 11:10:00,
2013-04-08 06:15:00,65.3,60.3,29.50,South,178,8.9,15.0,84,0.00,OVC,,0.00,WeatherDisplay:10.37,2013-04-08 11:15:00,
2013-04-08 06:21:00,65.3,60.3,29.50,SE,133,7.5,16.1,84,0.00,OVC,,0.00,WeatherDisplay:10.37,2013-04-08 11:21:00,
2013-04-08 06:26:00,65.3,60.3,29.50,SW,223,9.5,13.8,84,0.00,OVC,,0.00,WeatherDisplay:10.37,2013-04-08 11:26:00,
2013-04-08 06:31:00,65.5,60.5,29.50,SE,133,8.7,12.7,84,0.00,OVC,,0.00,WeatherDisplay:10.37,2013-04-08 11:31:00,
2013-04-08 06:36:00,65.5,60.5,29.50,WSW,245,8.8,15.0,84,0.00,OVC,,0.00,WeatherDisplay:10.37,2013-04-08 11:36:00,
2013-04-08 06:42:00,65.5,60.5,29.50,South,178,7.9,12.7,84,0.00,OVC,,0.00,WeatherDisplay:10.37,2013-04-08 11:42:00,
2013-04-08 06:47:00,65.5,60.5,29.50,SW,223,9.7,17.3,84,0.00,OVC,,0.00,WeatherDisplay:10.37,2013-04-08 11:47:00,
2013-04-08 06:52:00,65.5,60.5,29.50,SW,223,7.4,12.7,84,0.00,OVC,,0.00,WeatherDisplay:10.37,2013-04-08 11:52:00,
2013-04-08 06:57:00,65.5,60.5,29.50,SW,223,7.8,11.5,84,0.00,OVC,,0.00,WeatherDisplay:10.37,2013-04-08 11:57:00,
2013-04-08 07:02:00,65.7,60.7,29.50,SW,223,10.3,13.8,84,0.00,OVC,,0.00,WeatherDisplay:10.37,2013-04-08 12:02:00,
2013-04-08 07:07:00,65.7,60.7,29.50,SW,223,9.0,13.8,84,0.00,OVC,,0.00,WeatherDisplay:10.37,2013-04-08 12:07:00,
2013-04-08 07:12:00,65.7,60.7,29.50,SSE,155,8.0,15.0,84,0.00,OVC,,0.00,WeatherDisplay:10.37,2013-04-08 12:12:00,
2013-04-08 07:17:00,65.7,60.7,29.50,SSW,201,8.1,16.1,84,0.00,OVC,,0.00,WeatherDisplay:10.37,2013-04-08 12:17:00,
2013-04-08 07:22:00,65.7,60.7,29.50,SSE,155,10.6,15.0,84,0.00,OVC,,0.00,WeatherDisplay:10.37,2013-04-08 12:22:00,
2013-04-08 07:27:00,65.7,60.7,29.51,West,268,6.9,10.4,84,0.00,OVC,,0.00,WeatherDisplay:10.37,2013-04-08 12:27:00,
2013-04-08 07:32:00,65.7,60.7,29.51,SSW,201,7.3,12.7,84,0.00,OVC,,0.00,WeatherDisplay:10.37,2013-04-08 12:32:00,
2013-04-08 07:38:00,65.8,60.9,29.51,SW,223,10.5,15.0,84,0.00,OVC,,0.00,WeatherDisplay:10.37,2013-04-08 12:38:00,
2013-04-08 07:43:00,65.8,60.9,29.51,SW,223,8.9,11.5,84,0.00,OVC,,0.00,WeatherDisplay:10.37,2013-04-08 12:43:00,
2013-04-08 07:48:00,65.8,60.9,29.51,West,268,10.2,13.8,84,0.00,OVC,,0.00,WeatherDisplay:10.37,2013-04-08 12:48:00,
2013-04-08 07:53:00,66.0,61.0,29.51,South,178,7.6,12.4,84,0.00,OVC,,0.00,WeatherDisplay:10.37,2013-04-08 12:53:00,
2013-04-08 07:58:00,66.2,61.2,29.51,SW,223,6.8,13.8,84,0.00,OVC,,0.00,WeatherDisplay:10.37,2013-04-08 12:58:00,
2013-04-08 08:03:00,66.2,61.2,29.51,South,178,10.8,15.8,84,0.00,OVC,,0.00,WeatherDisplay:10.37,2013-04-08 13:03:00,
2013-04-08 08:08:00,66.2,61.2,29.51,SSE,155,9.6,16.1,84,0.00,OVC,,0.00,WeatherDisplay:10.37,2013-04-08 13:08:00,
2013-04-08 08:13:00,66.4,61.4,29.51,SE,133,4.9,9.2,84,0.00,OVC,,0.00,WeatherDisplay:10.37,2013-04-08 13:13:00,
2013-04-08 08:18:00,66.4,61.4,29.52,SSE,155,6.7,16.1,84,0.00,OVC,,0.00,WeatherDisplay:10.37,2013-04-08 13:18:00,
2013-04-08 08:23:00,66.4,61.4,29.52,SE,133,7.4,11.5,84,0.00,OVC,,0.00,WeatherDisplay:10.37,2013-04-08 13:23:00,
2013-04-08 08:29:00,66.6,61.6,29.52,SW,223,5.7,10.4,84,0.00,OVC,,0.00,WeatherDisplay:10.37,2013-04-08 13:29:00,
2013-04-08 08:34:00,66.6,61.2,29.52,SW,223,8.6,11.5,83,0.00,OVC,,0.00,WeatherDisplay:10.37,2013-04-08 13:34:00,
2013-04-08 08:39:00,66.9,61.6,29.52,South,178,4.9,8.1,83,0.00,OVC,,0.00,WeatherDisplay:10.37,2013-04-08 13:39:00,
2013-04-08 08:44:00,66.9,61.6,29.52,SSW,201,5.2,11.5,83,0.00,OVC,,0.00,WeatherDisplay:10.37,2013-04-08 13:44:00,
2013-04-08 08:50:00,66.9,61.6,29.52,South,178,8.0,12.7,83,0.00,OVC,,0.00,WeatherDisplay:10.37,2013-04-08 13:50:00,
2013-04-08 08:55:00,67.1,61.8,29.52,NNW,335,6.4,12.7,83,0.00,OVC,,0.00,WeatherDisplay:10.37,2013-04-08 13:55:00,
2013-04-08 09:00:00,67.3,61.9,29.52,South,178,8.6,13.8,83,0.00,OVC,,0.00,WeatherDisplay:10.37,2013-04-08 14:00:00,
2013-04-08 09:05:00,67.3,61.9,29.52,SSW,201,6.4,10.4,83,0.00,OVC,,0.00,WeatherDisplay:10.37,2013-04-08 14:05:00,
2013-04-08 09:10:00,67.5,62.1,29.52,SW,223,8.4,15.0,83,0.00,OVC,,0.00,WeatherDisplay:10.37,2013-04-08 14:10:00,
2013-04-08 09:15:00,67.6,61.9,29.52,SSW,201,8.5,16.3,82,0.00,OVC,,0.00,WeatherDisplay:10.37,2013-04-08 14:15:00,
2013-04-08 09:20:00,67.6,61.9,29.52,West,268,7.2,12.7,82,0.00,OVC,,0.00,WeatherDisplay:10.37,2013-04-08 14:20:00,
2013-04-08 09:25:00,67.8,62.1,29.51,SE,133,8.2,13.8,82,0.00,OVC,,0.00,WeatherDisplay:10.37,2013-04-08 14:25:00,
2013-04-08 09:30:00,68.0,62.3,29.51,South,178,9.1,13.3,82,0.00,OVC,,0.00,WeatherDisplay:10.37,2013-04-08 14:30:00,
2013-04-08 09:35:00,68.2,62.1,29.51,SW,223,8.7,17.3,81,0.00,OVC,,0.00,WeatherDisplay:10.37,2013-04-08 14:35:00,
2013-04-08 09:40:00,68.4,62.3,29.51,SSW,201,9.9,13.8,81,0.00,OVC,,0.00,WeatherDisplay:10.37,2013-04-08 14:40:00,
2013-04-08 09:46:00,68.7,62.3,29.51,SSW,201,8.4,12.7,80,0.00,OVC,,0.00,WeatherDisplay:10.37,2013-04-08 14:46:00,
2013-04-08 09:51:00,68.9,62.5,29.51,SW,223,10.9,18.4,80,0.00,OVC,,0.00,WeatherDisplay:10.37,2013-04-08 14:51:00,
2013-04-08 09:56:00,69.1,62.6,29.51,South,178,8.8,13.3,80,0.00,OVC,,0.00,WeatherDisplay:10.37,2013-04-08 14:56:00,
2013-04-08 10:01:00,69.4,62.6,29.51,SE,133,8.8,13.8,79,0.00,OVC,,0.00,WeatherDisplay:10.37,2013-04-08 15:01:00,
2013-04-08 10:06:00,69.6,62.8,29.51,SW,223,6.6,11.5,79,0.00,OVC,,0.00,WeatherDisplay:10.37,2013-04-08 15:06:00,
2013-04-08 10:11:00,70.0,62.8,29.51,East,88,6.1,16.1,78,0.00,OVC,,0.00,WeatherDisplay:10.37,2013-04-08 15:11:00,
2013-04-08 10:17:00,70.3,63.2,29.52,SSE,155,8.8,13.8,78,0.00,OVC,,0.00,WeatherDisplay:10.37,2013-04-08 15:17:00,
2013-04-08 10:22:00,70.5,63.3,29.52,SW,223,7.1,10.4,78,0.00,OVC,,0.00,WeatherDisplay:10.37,2013-04-08 15:22:00,
2013-04-08 10:27:00,70.5,63.0,29.52,SSE,155,6.1,10.4,77,0.00,OVC,,0.00,WeatherDisplay:10.37,2013-04-08 15:27:00,
2013-04-08 10:32:00,70.7,62.8,29.52,SE,133,7.8,12.7,76,0.00,OVC,,0.00,WeatherDisplay:10.37,2013-04-08 15:32:00,
2013-04-08 10:37:00,70.5,63.0,29.52,South,178,6.4,11.5,77,0.00,OVC,,0.00,WeatherDisplay:10.37,2013-04-08 15:37:00,
2013-04-08 10:42:00,70.5,63.0,29.52,SSE,155,9.1,11.5,77,0.00,OVC,,0.00,WeatherDisplay:10.37,2013-04-08 15:42:00,
2013-04-08 10:47:00,70.5,63.0,29.52,SSE,155,7.9,12.7,77,0.00,OVC,,0.00,WeatherDisplay:10.37,2013-04-08 15:47:00,
2013-04-08 10:52:00,70.5,63.0,29.52,SW,223,10.5,18.4,77,0.00,OVC,,0.00,WeatherDisplay:10.37,2013-04-08 15:52:00,
2013-04-08 10:57:00,70.9,63.3,29.52,SSE,155,11.0,21.9,77,0.00,OVC,,0.00,WeatherDisplay:10.37,2013-04-08 15:57:00,
2013-04-08 11:02:00,71.1,63.5,29.52,SW,223,10.7,16.1,77,0.00,OVC,,0.00,WeatherDisplay:10.37,2013-04-08 16:02:00,
2013-04-08 11:07:00,71.1,63.5,29.52,NE,43,9.4,16.1,77,0.00,OVC,,0.00,WeatherDisplay:10.37,2013-04-08 16:07:00,
2013-04-08 11:12:00,71.2,63.3,29.52,SW,223,10.3,17.3,76,0.00,OVC,,0.00,WeatherDisplay:10.37,2013-04-08 16:12:00,
2013-04-08 11:18:00,71.2,63.7,29.52,SSW,201,8.1,12.2,77,0.00,OVC,,0.00,WeatherDisplay:10.37,2013-04-08 16:18:00,
2013-04-08 11:23:00,71.2,63.7,29.52,South,178,10.6,19.9,77,0.00,OVC,,0.00,WeatherDisplay:10.37,2013-04-08 16:23:00,
2013-04-08 11:28:00,71.4,63.5,29.52,SW,223,13.0,17.3,76,0.00,OVC,,0.00,WeatherDisplay:10.37,2013-04-08 16:28:00,
2013-04-08 11:33:00,71.6,63.3,29.52,SSE,155,13.8,21.0,75,0.00,OVC,,0.00,WeatherDisplay:10.37,2013-04-08 16:33:00,
2013-04-08 11:38:00,71.8,63.8,29.52,South,178,7.4,11.5,76,0.00,OVC,,0.00,WeatherDisplay:10.37,2013-04-08 16:38:00,
2013-04-08 11:43:00,72.0,64.0,29.53,WSW,245,6.4,10.5,76,0.00,OVC,,0.00,WeatherDisplay:10.37,2013-04-08 16:43:00,
2013-04-08 11:48:00,72.1,63.8,29.53,South,178,10.1,15.0,75,0.00,OVC,,0.00,WeatherDisplay:10.37,2013-04-08 16:48:00,
2013-04-08 11:53:00,72.1,63.4,29.53,SSW,201,11.6,20.7,74,0.00,OVC,,0.00,WeatherDisplay:10.37,2013-04-08 16:53:00,
2013-04-08 11:58:00,72.1,63.4,29.53,SW,223,11.3,21.9,74,0.00,OVC,,0.00,WeatherDisplay:10.37,2013-04-08 16:58:00,
2013-04-08 12:03:00,72.3,63.9,29.53,West,268,10.4,17.3,75,0.00,OVC,,0.00,WeatherDisplay:10.37,2013-04-08 17:03:00,
2013-04-08 12:08:00,72.3,63.9,29.53,South,178,9.6,15.1,75,0.00,OVC,,0.00,WeatherDisplay:10.37,2013-04-08 17:08:00,
2013-04-08 12:13:00,72.5,64.1,29.53,SW,223,11.3,18.4,75,0.00,OVC,,0.00,WeatherDisplay:10.37,2013-04-08 17:13:00,
2013-04-08 12:18:00,72.7,64.3,29.53,SSW,201,7.5,13.8,75,0.00,OVC,,0.00,WeatherDisplay:10.37,2013-04-08 17:18:00,
2013-04-08 12:23:00,72.9,64.5,29.53,SW,223,9.1,14.5,75,0.00,OVC,,0.00,WeatherDisplay:10.37,2013-04-08 17:23:00,
2013-04-08 12:28:00,73.0,64.3,29.53,South,178,10.3,16.1,74,0.00,OVC,,0.00,WeatherDisplay:10.37,2013-04-08 17:28:00,
2013-04-08 12:33:00,72.9,64.1,29.52,SSW,201,13.7,20.7,74,0.00,OVC,,0.00,WeatherDisplay:10.37,2013-04-08 17:33:00,
2013-04-08 12:38:00,73.0,64.3,29.52,South,178,8.7,16.1,74,0.00,OVC,,0.00,WeatherDisplay:10.37,2013-04-08 17:38:00,
2013-04-08 12:43:00,73.0,64.6,29.52,NW,313,8.2,15.0,75,0.00,OVC,,0.00,WeatherDisplay:10.37,2013-04-08 17:43:00,
2013-04-08 12:49:00,72.9,64.5,29.52,SSW,201,5.5,10.4,75,0.00,OVC,,0.00,WeatherDisplay:10.37,2013-04-08 17:49:00,
2013-04-08 12:54:00,72.9,64.5,29.52,West,268,9.2,16.1,75,0.00,OVC,,0.00,WeatherDisplay:10.37,2013-04-08 17:54:00,
2013-04-08 12:59:00,73.2,64.8,29.51,ESE,111,9.8,16.1,75,0.00,OVC,,0.00,WeatherDisplay:10.37,2013-04-08 17:59:00,
2013-04-08 13:04:00,73.2,64.4,29.51,SW,223,8.0,10.4,74,0.00,OVC,,0.00,WeatherDisplay:10.37,2013-04-08 18:04:00,
2013-04-08 13:09:00,73.0,64.3,29.51,WSW,245,8.5,15.0,74,0.00,OVC,,0.00,WeatherDisplay:10.37,2013-04-08 18:09:00,
2013-04-08 13:14:00,73.0,64.3,29.52,SSW,201,7.7,13.1,74,0.00,OVC,,0.00,WeatherDisplay:10.37,2013-04-08 18:14:00,
2013-04-08 13:19:00,73.0,64.3,29.51,SSE,155,8.1,12.7,74,0.00,OVC,,0.00,WeatherDisplay:10.37,2013-04-08 18:19:00,
2013-04-08 13:24:00,73.2,64.4,29.51,SSE,155,5.8,13.8,74,0.00,OVC,,0.00,WeatherDisplay:10.37,2013-04-08 18:24:00,
2013-04-08 13:29:00,73.4,64.6,29.51,SSE,155,6.6,13.8,74,0.00,OVC,,0.00,WeatherDisplay:10.37,2013-04-08 18:29:00,
2013-04-08 13:34:00,73.2,64.4,29.51,SW,223,6.2,9.2,74,0.00,OVC,,0.00,WeatherDisplay:10.37,2013-04-08 18:34:00,
2013-04-08 13:39:00,73.2,64.8,29.51,SSW,201,8.2,13.8,75,0.00,OVC,,0.00,WeatherDisplay:10.37,2013-04-08 18:39:00,
2013-04-08 13:45:00,73.4,65.0,29.51,SSW,201,10.1,16.1,75,0.00,OVC,,0.00,WeatherDisplay:10.37,2013-04-08 18:45:00,
2013-04-08 13:50:00,73.8,65.0,29.50,WSW,245,8.6,13.8,74,0.00,OVC,,0.00,WeatherDisplay:10.37,2013-04-08 18:50:00,
2013-04-08 13:55:00,74.1,64.9,29.50,SSE,155,7.2,11.5,73,0.00,OVC,,0.00,WeatherDisplay:10.37,2013-04-08 18:55:00,
2013-04-08 14:01:00,74.1,64.5,29.50,SSW,201,8.5,9.2,72,0.00,OVC,,0.00,WeatherDisplay:10.37,2013-04-08 19:01:00,
2013-04-08 14:07:00,73.8,64.6,29.50,SSW,201,8.6,13.8,73,0.00,OVC,,0.00,WeatherDisplay:10.37,2013-04-08 19:07:00,
2013-04-08 14:12:00,73.9,64.7,29.50,South,178,8.4,15.0,73,0.00,OVC,,0.00,WeatherDisplay:10.37,2013-04-08 19:12:00,
2013-04-08 14:17:00,74.1,64.9,29.50,ESE,111,6.3,10.4,73,0.00,OVC,,0.00,WeatherDisplay:10.37,2013-04-08 19:17:00,
2013-04-08 14:22:00,74.1,64.9,29.50,South,178,4.7,9.2,73,0.00,OVC,,0.00,WeatherDisplay:10.37,2013-04-08 19:22:00,
2013-04-08 14:27:00,73.9,64.7,29.50,NE,43,7.1,11.5,73,0.00,OVC,,0.00,WeatherDisplay:10.37,2013-04-08 19:27:00,
2013-04-08 14:32:00,74.1,64.9,29.50,NE,43,4.9,11.5,73,0.00,OVC,,0.00,WeatherDisplay:10.37,2013-04-08 19:32:00,
2013-04-08 14:37:00,74.1,64.9,29.50,SE,133,7.4,13.8,73,0.00,OVC,,0.00,WeatherDisplay:10.37,2013-04-08 19:37:00,
2013-04-08 14:42:00,74.3,65.1,29.49,South,178,5.7,9.2,73,0.00,OVC,,0.00,WeatherDisplay:10.37,2013-04-08 19:42:00,
2013-04-08 14:47:00,74.5,64.9,29.49,ESE,111,5.2,11.5,72,0.00,OVC,,0.00,WeatherDisplay:10.37,2013-04-08 19:47:00,
2013-04-08 14:52:00,74.5,64.5,29.49,SSW,201,8.0,13.8,71,0.00,OVC,,0.00,WeatherDisplay:10.37,2013-04-08 19:52:00,
2013-04-08 14:57:00,74.5,64.5,29.49,SSW,201,8.0,12.7,71,0.00,OVC,,0.00,WeatherDisplay:10.37,2013-04-08 19:57:00,
2013-04-08 15:03:00,74.5,64.5,29.49,SSE,155,7.3,13.8,71,0.00,OVC,,0.00,WeatherDisplay:10.37,2013-04-08 20:03:00,
2013-04-08 15:08:00,74.5,64.9,29.49,SW,223,6.8,11.5,72,0.00,OVC,,0.00,WeatherDisplay:10.37,2013-04-08 20:08:00,
2013-04-08 15:13:00,74.7,64.6,29.48,SW,223,7.3,11.5,71,0.00,OVC,,0.00,WeatherDisplay:10.37,2013-04-08 20:13:00,
2013-04-08 15:18:00,74.7,64.6,29.48,East,88,5.1,11.5,71,0.00,OVC,,0.00,WeatherDisplay:10.37,2013-04-08 20:18:00,
2013-04-08 15:23:00,74.7,65.0,29.48,SSE,155,4.3,6.9,72,0.00,OVC,,0.00,WeatherDisplay:10.37,2013-04-08 20:23:00,
2013-04-08 15:28:00,74.8,65.2,29.48,SE,133,5.2,9.2,72,0.00,OVC,,0.00,WeatherDisplay:10.37,2013-04-08 20:28:00,
2013-04-08 15:33:00,74.8,64.8,29.48,SSE,155,9.3,19.6,71,0.00,OVC,,0.00,WeatherDisplay:10.37,2013-04-08 20:33:00,
2013-04-08 15:38:00,74.8,64.8,29.48,West,268,8.6,12.7,71,0.00,OVC,,0.00,WeatherDisplay:10.37,2013-04-08 20:38:00,
2013-04-08 15:43:00,74.8,64.8,29.48,SW,223,7.4,12.7,71,0.00,OVC,,0.00,WeatherDisplay:10.37,2013-04-08 20:43:00,
2013-04-08 15:48:00,74.7,64.6,29.48,South,178,6.2,11.5,71,0.00,OVC,,0.00,WeatherDisplay:10.37,2013-04-08 20:48:00,
2013-04-08 15:53:00,74.5,64.5,29.47,ESE,111,6.7,12.7,71,0.00,OVC,,0.00,WeatherDisplay:10.37,2013-04-08 20:53:00,
2013-04-08 15:58:00,74.7,64.6,29.47,SW,223,6.7,11.5,71,0.00,OVC,,0.00,WeatherDisplay:10.37,2013-04-08 20:58:00,
2013-04-08 16:03:00,74.8,64.8,29.47,East,88,6.5,11.5,71,0.00,OVC,,0.00,WeatherDisplay:10.37,2013-04-08 21:03:00,
2013-04-08 16:08:00,75.0,65.0,29.47,South,178,6.6,9.2,71,0.00,OVC,,0.00,WeatherDisplay:10.37,2013-04-08 21:08:00,
2013-04-08 16:13:00,75.2,64.7,29.46,SSE,155,5.0,10.0,70,0.00,OVC,,0.00,WeatherDisplay:10.37,2013-04-08 21:13:00,
2013-04-08 16:18:00,75.2,64.7,29.46,SW,223,4.3,10.4,70,0.00,OVC,,0.00,WeatherDisplay:10.37,2013-04-08 21:18:00,
2013-04-08 16:23:00,75.2,65.1,29.46,East,88,4.2,6.9,71,0.00,OVC,,0.00,WeatherDisplay:10.37,2013-04-08 21:23:00,
2013-04-08 16:29:00,75.0,64.6,29.46,NE,43,6.4,11.5,70,0.00,OVC,,0.00,WeatherDisplay:10.37,2013-04-08 21:29:00,
2013-04-08 16:34:00,75.0,65.0,29.46,SW,223,6.3,11.5,71,0.00,OVC,,0.00,WeatherDisplay:10.37,2013-04-08 21:34:00,
2013-04-08 16:39:00,74.8,64.8,29.46,West,268,3.9,6.9,71,0.00,OVC,,0.00,WeatherDisplay:10.37,2013-04-08 21:39:00,
2013-04-08 16:44:00,74.8,64.8,29.46,East,88,5.9,11.5,71,0.00,OVC,,0.00,WeatherDisplay:10.37,2013-04-08 21:44:00,
2013-04-08 16:49:00,74.8,64.4,29.46,SW,223,6.7,13.8,70,0.00,OVC,,0.00,WeatherDisplay:10.37,2013-04-08 21:49:00,
2013-04-08 16:54:00,75.0,64.6,29.45,NW,313,4.0,9.2,70,0.00,OVC,,0.00,WeatherDisplay:10.37,2013-04-08 21:54:00,
2013-04-08 16:59:00,75.2,64.3,29.45,SE,133,7.8,12.7,69,0.00,OVC,,0.00,WeatherDisplay:10.37,2013-04-08 21:59:00,
2013-04-08 17:04:00,75.2,64.3,29.45,SW,223,7.8,13.8,69,0.00,OVC,,0.00,WeatherDisplay:10.37,2013-04-08 22:04:00,
2013-04-08 17:10:00,75.2,64.3,29.45,SE,133,4.2,9.2,69,0.00,OVC,,0.00,WeatherDisplay:10.37,2013-04-08 22:10:00,
2013-04-08 17:15:00,75.2,64.3,29.45,South,178,6.3,13.3,69,0.00,OVC,,0.00,WeatherDisplay:10.37,2013-04-08 22:15:00,
2013-04-08 17:20:00,75.6,65.1,29.45,South,178,6.8,9.8,70,0.00,OVC,,0.00,WeatherDisplay:10.37,2013-04-08 22:20:00,
2013-04-08 17:25:00,76.1,64.8,29.44,SE,133,7.8,12.7,68,0.00,OVC,,0.00,WeatherDisplay:10.37,2013-04-08 22:25:00,
2013-04-08 17:30:00,76.3,64.5,29.44,South,178,9.5,18.4,67,0.00,OVC,,0.00,WeatherDisplay:10.37,2013-04-08 22:30:00,
2013-04-08 17:35:00,76.3,64.5,29.44,SSE,155,7.1,11.5,67,0.00,OVC,,0.00,WeatherDisplay:10.37,2013-04-08 22:35:00,
2013-04-08 17:40:00,76.3,64.9,29.44,SSE,155,6.1,9.2,68,0.00,OVC,,0.00,WeatherDisplay:10.37,2013-04-08 22:40:00,
2013-04-08 17:45:00,76.3,64.5,29.44,SSE,155,6.4,11.5,67,0.00,OVC,,0.00,WeatherDisplay:10.37,2013-04-08 22:45:00,
2013-04-08 17:50:00,76.3,64.9,29.44,SSE,155,4.9,8.1,68,0.00,OVC,,0.00,WeatherDisplay:10.37,2013-04-08 22:50:00,
2013-04-08 17:55:00,76.1,64.8,29.44,SW,223,7.9,15.0,68,0.00,OVC,,0.00,WeatherDisplay:10.37,2013-04-08 22:55:00,
2013-04-08 18:01:00,75.9,64.6,29.44,SSE,155,8.8,14.1,68,0.00,OVC,,0.00,WeatherDisplay:10.37,2013-04-08 23:01:00,
2013-04-08 18:06:00,75.7,64.4,29.44,ESE,111,9.5,13.8,68,0.00,OVC,,0.00,WeatherDisplay:10.37,2013-04-08 23:06:00,
2013-04-08 18:11:00,75.6,64.3,29.44,SSE,155,8.5,12.7,68,0.00,OVC,,0.00,WeatherDisplay:10.37,2013-04-08 23:11:00,
2013-04-08 18:16:00,75.6,64.3,29.44,South,178,9.8,15.0,68,0.00,OVC,,0.00,WeatherDisplay:10.37,2013-04-08 23:16:00,
2013-04-08 18:21:00,75.6,64.3,29.44,South,178,7.7,12.7,68,0.00,OVC,,0.00,WeatherDisplay:10.37,2013-04-08 23:21:00,
2013-04-08 18:26:00,75.6,64.7,29.44,SSE,155,7.8,11.5,69,0.00,OVC,,0.00,WeatherDisplay:10.37,2013-04-08 23:26:00,
2013-04-08 18:31:00,75.4,64.5,29.45,SE,133,5.2,9.2,69,0.00,OVC,,0.00,WeatherDisplay:10.37,2013-04-08 23:31:00,
2013-04-08 18:36:00,75.4,64.5,29.45,SE,133,6.6,11.5,69,0.00,OVC,,0.00,WeatherDisplay:10.37,2013-04-08 23:36:00,
2013-04-08 18:41:00,75.2,64.7,29.44,SE,133,9.1,13.8,70,0.00,OVC,,0.00,WeatherDisplay:10.37,2013-04-08 23:41:00,
2013-04-08 18:46:00,75.2,64.7,29.44,SE,133,8.5,11.5,70,0.00,OVC,,0.00,WeatherDisplay:10.37,2013-04-08 23:46:00,
2013-04-08 18:51:00,75.2,64.7,29.44,ESE,111,6.4,6.9,70,0.00,OVC,,0.00,WeatherDisplay:10.37,2013-04-08 23:51:00,
2013-04-08 18:57:00,75.2,64.7,29.44,SSE,155,7.7,11.5,70,0.00,OVC,,0.00,WeatherDisplay:10.37,2013-04-08 23:57:00,
2013-04-08 19:02:00,75.2,64.7,29.43,SSE,155,5.8,9.2,70,0.00,OVC,,0.00,WeatherDisplay:10.37,2013-04-09 00:02:00,
2013-04-08 19:07:00,75.2,64.7,29.44,SE,133,5.7,8.1,70,0.00,OVC,,0.00,WeatherDisplay:10.37,2013-04-09 00:07:00,
2013-04-08 19:12:00,75.0,64.6,29.44,SE,133,8.3,12.7,70,0.00,OVC,,0.00,WeatherDisplay:10.37,2013-04-09 00:12:00,
2013-04-08 19:17:00,75.0,64.6,29.44,SSE,155,5.9,8.1,70,0.00,OVC,,0.00,WeatherDisplay:10.37,2013-04-09 00:17:00,
2013-04-08 19:22:00,74.8,64.8,29.44,South,178,6.6,9.2,71,0.00,OVC,,0.00,WeatherDisplay:10.37,2013-04-09 00:22:00,
2013-04-08 19:27:00,74.8,64.8,29.44,SE,133,5.8,8.1,71,0.00,OVC,,0.00,WeatherDisplay:10.37,2013-04-09 00:27:00,
2013-04-08 19:32:00,74.8,64.8,29.44,SE,133,7.8,10.4,71,0.00,OVC,,0.00,WeatherDisplay:10.37,2013-04-09 00:32:00,
2013-04-08 19:37:00,74.7,64.6,29.44,SE,133,7.0,9.2,71,0.00,OVC,,0.00,WeatherDisplay:10.37,2013-04-09 00:37:00,
2013-04-08 19:43:00,74.5,64.5,29.44,SE,133,6.9,10.4,71,0.00,OVC,,0.00,WeatherDisplay:10.37,2013-04-09 00:43:00,
2013-04-08 19:48:00,74.5,64.5,29.44,South,178,6.8,11.5,71,0.00,OVC,,0.00,WeatherDisplay:10.37,2013-04-09 00:48:00,
2013-04-08 19:53:00,74.3,64.3,29.44,SSE,155,5.6,7.9,71,0.00,OVC,,0.00,WeatherDisplay:10.37,2013-04-09 00:53:00,
2013-04-08 19:58:00,74.3,64.3,29.44,SE,133,5.9,9.2,71,0.00,OVC,,0.00,WeatherDisplay:10.37,2013-04-09 00:58:00,
2013-04-08 20:03:00,74.1,64.5,29.44,SSE,155,7.8,12.0,72,0.00,OVC,,0.00,WeatherDisplay:10.37,2013-04-09 01:03:00,
2013-04-08 20:08:00,74.1,64.5,29.44,SE,133,10.6,16.1,72,0.00,OVC,,0.00,WeatherDisplay:10.37,2013-04-09 01:08:00,
2013-04-08 20:13:00,73.9,63.9,29.44,SE,133,12.8,20.7,71,0.00,OVC,,0.00,WeatherDisplay:10.37,2013-04-09 01:13:00,
2013-04-08 20:18:00,73.9,63.9,29.45,SSE,155,12.2,18.4,71,0.00,OVC,,0.00,WeatherDisplay:10.37,2013-04-09 01:18:00,
2013-04-08 20:23:00,73.9,63.9,29.45,ESE,111,9.4,12.7,71,0.00,OVC,,0.00,WeatherDisplay:10.37,2013-04-09 01:23:00,
2013-04-08 20:28:00,73.8,63.8,29.45,ESE,111,7.9,13.8,71,0.00,OVC,,0.00,WeatherDisplay:10.37,2013-04-09 01:28:00,
2013-04-08 20:33:00,73.8,63.8,29.45,SSE,155,9.0,11.5,71,0.00,OVC,,0.00,WeatherDisplay:10.37,2013-04-09 01:33:00,
2013-04-08 20:39:00,73.6,63.6,29.45,SSE,155,9.9,15.0,71,0.00,OVC,,0.00,WeatherDisplay:10.37,2013-04-09 01:39:00,
2013-04-08 20:44:00,73.6,63.6,29.45,SE,133,9.9,15.0,71,0.00,OVC,,0.00,WeatherDisplay:10.37,2013-04-09 01:44:00,
2013-04-08 20:49:00,73.4,63.4,29.45,SE,133,9.0,15.0,71,0.00,OVC,,0.00,WeatherDisplay:10.37,2013-04-09 01:49:00,
2013-04-08 20:55:00,73.4,63.4,29.45,SE,133,9.7,19.6,71,0.00,OVC,,0.00,WeatherDisplay:10.37,2013-04-09 01:55:00,
2013-04-08 21:00:00,73.2,63.2,29.45,ESE,111,9.7,16.1,71,0.00,OVC,,0.00,WeatherDisplay:10.37,2013-04-09 02:00:00,
2013-04-08 21:05:00,73.2,63.2,29.45,SSE,155,9.9,12.7,71,0.00,OVC,,0.00,WeatherDisplay:10.37,2013-04-09 02:05:00,
2013-04-08 21:10:00,73.2,63.2,29.45,SE,133,10.3,15.0,71,0.00,OVC,,0.00,WeatherDisplay:10.37,2013-04-09 02:10:00,
2013-04-08 21:15:00,73.0,63.1,29.45,SE,133,9.4,16.1,71,0.00,OVC,,0.00,WeatherDisplay:10.37,2013-04-09 02:15:00,
2013-04-08 21:20:00,73.0,63.1,29.45,SSE,155,11.9,18.4,71,0.00,OVC,,0.00,WeatherDisplay:10.37,2013-04-09 02:20:00,
2013-04-08 21:25:00,73.0,62.7,29.45,SE,133,13.3,18.4,70,0.00,OVC,,0.00,WeatherDisplay:10.37,2013-04-09 02:25:00,
2013-04-08 21:30:00,73.0,62.7,29.45,SSE,155,10.1,18.5,70,0.00,OVC,,0.00,WeatherDisplay:10.37,2013-04-09 02:30:00,
2013-04-08 21:35:00,73.0,62.7,29.45,SE,133,12.5,17.3,70,0.00,OVC,,0.00,WeatherDisplay:10.37,2013-04-09 02:35:00,
2013-04-08 21:40:00,73.2,62.8,29.46,SSE,155,10.1,17.3,70,0.00,OVC,,0.00,WeatherDisplay:10.37,2013-04-09 02:40:00,
2013-04-08 21:45:00,73.0,62.7,29.46,SSE,155,10.0,12.7,70,0.00,OVC,,0.00,WeatherDisplay:10.37,2013-04-09 02:45:00,
2013-04-08 21:51:00,73.0,62.3,29.46,South,178,13.1,21.3,69,0.00,OVC,,0.00,WeatherDisplay:10.37,2013-04-09 02:51:00,
2013-04-08 21:56:00,73.0,61.9,29.46,SE,133,10.8,19.6,68,0.00,OVC,,0.00,WeatherDisplay:10.37,2013-04-09 02:56:00,
2013-04-08 22:01:00,73.2,61.6,29.46,SSE,155,11.4,14.1,67,0.00,OVC,,0.00,WeatherDisplay:10.37,2013-04-09 03:01:00,
2013-04-08 22:06:00,73.2,61.2,29.46,SE,133,12.3,20.7,66,0.00,OVC,,0.00,WeatherDisplay:10.37,2013-04-09 03:06:00,
2013-04-08 22:12:00,73.2,61.2,29.46,SE,133,10.3,17.3,66,0.00,OVC,,0.00,WeatherDisplay:10.37,2013-04-09 03:12:00,
2013-04-08 22:17:00,73.0,61.0,29.46,SE,133,12.0,17.5,66,0.00,OVC,,0.00,WeatherDisplay:10.37,2013-04-09 03:17:00,
2013-04-08 22:22:00,73.0,61.0,29.46,SSE,155,13.6,21.9,66,0.00,OVC,,0.00,WeatherDisplay:10.37,2013-04-09 03:22:00,
2013-04-08 22:27:00,73.0,61.0,29.47,ESE,111,14.4,18.4,66,0.00,OVC,,0.00,WeatherDisplay:10.37,2013-04-09 03:27:00,
2013-04-08 22:32:00,72.9,60.8,29.48,SE,133,11.2,16.1,66,0.00,OVC,,0.00,WeatherDisplay:10.37,2013-04-09 03:32:00,
2013-04-08 22:37:00,72.5,60.5,29.48,SSE,155,8.8,13.8,66,0.00,OVC,,0.00,WeatherDisplay:10.37,2013-04-09 03:37:00,
2013-04-08 22:42:00,72.3,60.3,29.48,SSE,155,8.7,13.8,66,0.00,OVC,,0.00,WeatherDisplay:10.37,2013-04-09 03:42:00,
2013-04-08 22:47:00,72.1,60.2,29.48,SE,133,11.9,17.3,66,0.00,OVC,,0.00,WeatherDisplay:10.37,2013-04-09 03:47:00,
2013-04-08 22:52:00,72.0,60.4,29.48,South,178,10.4,15.0,67,0.00,OVC,,0.00,WeatherDisplay:10.37,2013-04-09 03:52:00,
2013-04-08 22:57:00,71.8,60.2,29.48,South,178,10.4,13.8,67,0.00,OVC,,0.00,WeatherDisplay:10.37,2013-04-09 03:57:00,
2013-04-08 23:00:00,71.6,59.6,29.48,SSE,155,8.7,13.8,66,0.00,OVC,,0.00,WeatherDisplay:10.37,2013-04-09 04:00:00,
2013-04-08 23:02:00,71.4,59.5,29.48,SSE,155,6.8,9.2,66,0.00,SCT,,0.00,WeatherDisplay:10.37,2013-04-09 04:02:00,
2013-04-08 23:04:00,71.2,59.7,29.48,SSE,155,8.1,12.8,67,0.00,SCT,,0.00,WeatherDisplay:10.37,2013-04-09 04:04:00,
2013-04-08 23:09:00,71.1,59.5,29.49,SE,133,6.3,11.6,67,0.00,SCT,,0.00,WeatherDisplay:10.37,2013-04-09 04:09:00,
2013-04-08 23:14:00,70.9,59.8,29.49,SE,133,7.7,10.7,68,0.00,SCT,,0.00,WeatherDisplay:10.37,2013-04-09 04:14:00,
2013-04-08 23:19:00,70.7,60.0,29.49,South,178,8.2,11.5,69,0.00,SCT,,0.00,WeatherDisplay:10.37,2013-04-09 04:19:00,
2013-04-08 23:24:00,70.5,59.9,29.48,South,178,9.7,12.7,69,0.00,SCT,,0.00,WeatherDisplay:10.37,2013-04-09 04:24:00,
2013-04-08 23:30:00,70.3,60.1,29.48,SSE,155,9.6,15.0,70,0.00,SCT,,0.00,WeatherDisplay:10.37,2013-04-09 04:30:00,
2013-04-08 23:35:00,70.3,60.1,29.48,ESE,111,8.6,13.1,70,0.00,SCT,,0.00,WeatherDisplay:10.37,2013-04-09 04:35:00,
2013-04-08 23:40:00,70.3,60.5,29.48,South,178,8.9,13.8,71,0.00,SCT,,0.00,WeatherDisplay:10.37,2013-04-09 04:40:00,
2013-04-08 23:45:00,70.3,60.5,29.48,SSE,155,9.9,14.3,71,0.00,SCT,,0.00,WeatherDisplay:10.37,2013-04-09 04:45:00,
2013-04-08 23:50:00,70.3,60.5,29.48,South,178,7.5,12.7,71,0.00,SCT,,0.00,WeatherDisplay:10.37,2013-04-09 04:50:00,
2013-04-08 23:55:00,70.3,60.5,29.48,ESE,111,6.7,10.4,71,0.00,SCT,,0.00,WeatherDisplay:10.37,2013-04-09 04:55:00,